Time;durP1;ratioP1;P1;durP2;ratioP2;P2;SDS_P1;SDS_P2;PMS_P1;PMS_P2;Temp;Humidity;BMP_temperature;BMP_pressure;BME280_temperature;BME280_humidity;BME280_pressure;Samples;Min_cycle;Max_cycle;Signal;HPM_P1;HPM_P2
2022/09/16 00:00:09;;;;;;;4.20;1.77;;;13.50;83.30;;;;;;5087412;28;20441;-70
2022/09/16 00:02:35;;;;;;;3.25;1.58;;;13.40;83.20;;;;;;5073235;28;20782;-71
2022/09/16 00:05:04;;;;;;;3.65;1.20;;;13.50;83.00;;;;;;5071298;28;20427;-71
2022/09/16 00:07:31;;;;;;;3.30;1.60;;;13.40;83.00;;;;;;5067623;28;20419;-70
2022/09/16 00:09:58;;;;;;;4.20;1.58;;;13.40;83.60;;;;;;5067499;28;20424;-70
2022/09/16 00:12:25;;;;;;;4.30;1.30;;;13.40;82.80;;;;;;5066432;28;20855;-70
2022/09/16 00:14:52;;;;;;;3.03;1.40;;;13.40;82.70;;;;;;5067017;28;20439;-71
2022/09/16 00:17:19;;;;;;;5.10;1.27;;;13.40;83.00;;;;;;5068185;28;20430;-71
2022/09/16 00:19:46;;;;;;;11.02;2.00;;;13.40;82.80;;;;;;5067908;28;20419;-70
2022/09/16 00:22:14;;;;;;;3.63;1.20;;;13.30;82.40;;;;;;5066669;28;20416;-72
2022/09/16 00:24:41;;;;;;;3.25;1.30;;;13.30;82.60;;;;;;5066420;28;20511;-70
2022/09/16 00:27:08;;;;;;;2.95;1.20;;;13.30;82.50;;;;;;5067057;28;20428;-70
2022/09/16 00:29:34;;;;;;;3.38;1.30;;;13.30;82.50;;;;;;5065579;28;20450;-70
2022/09/16 00:32:02;;;;;;;3.35;1.30;;;13.30;81.70;;;;;;5060673;28;20838;-72
2022/09/16 00:34:28;;;;;;;2.20;1.30;;;13.30;81.90;;;;;;5077238;28;20768;-71
2022/09/16 00:36:55;;;;;;;2.17;1.30;;;13.30;81.50;;;;;;5071694;28;20875;-70
2022/09/16 00:39:23;;;;;;;2.45;1.20;;;13.30;81.60;;;;;;5066394;28;20877;-70
2022/09/16 00:41:50;;;;;;;3.88;1.20;;;13.30;82.00;;;;;;5066563;28;20510;-70
2022/09/16 00:45:01;;;;;;;2.83;1.20;;;13.30;82.00;;;;;;5058472;28;20440;-70
2022/09/16 00:47:33;;;;;;;2.40;1.10;;;13.30;81.80;;;;;;5043846;28;20522;-71
2022/09/16 00:50:06;;;;;;;1.90;1.10;;;13.30;82.10;;;;;;5060462;28;20431;-72
2022/09/16 00:52:33;;;;;;;3.00;1.08;;;13.20;82.60;;;;;;5063116;28;20944;-70
2022/09/16 00:55:05;;;;;;;4.27;1.50;;;13.20;82.90;;;;;;5059893;28;20435;-70
2022/09/16 00:57:32;;;;;;;3.53;1.10;;;13.20;83.10;;;;;;5060788;28;20433;-71
2022/09/16 01:00:00;;;;;;;3.63;1.40;;;13.20;82.90;;;;;;5069833;28;20431;-70
2022/09/16 01:02:28;;;;;;;2.45;1.30;;;13.20;82.90;;;;;;5063046;28;20431;-71
2022/09/16 01:04:59;;;;;;;4.00;1.70;;;13.20;83.00;;;;;;5056631;28;20446;-71
2022/09/16 01:07:31;;;;;;;3.22;1.30;;;13.20;82.80;;;;;;5061117;28;20442;-70
2022/09/16 01:09:58;;;;;;;2.72;1.33;;;13.20;83.20;;;;;;5059572;28;20502;-70
2022/09/16 01:12:29;;;;;;;1.95;1.10;;;13.10;83.30;;;;;;5061903;28;20435;-70
2022/09/16 01:14:57;;;;;;;3.97;1.80;;;13.10;83.50;;;;;;5065127;28;20532;-70
2022/09/16 01:17:58;;;;;;;2.83;1.45;;;13.10;83.70;;;;;;5064303;28;20581;-71
2022/09/16 01:20:56;;;;;;;2.50;1.20;;;13.10;84.10;;;;;;5062738;28;20439;-70
2022/09/16 01:24:08;;;;;;;2.45;1.50;;;13.10;84.30;;;;;;5058585;28;20514;-72
2022/09/16 01:27:06;;;;;;;2.50;1.20;;;13.10;84.60;;;;;;5027146;28;20442;-70
2022/09/16 01:30:08;;;;;;;3.05;1.35;;;13.10;84.50;;;;;;5062637;28;20431;-71
2022/09/16 01:32:44;;;;;;;2.67;1.40;;;13.10;84.50;;;;;;5040889;28;20427;-71
2022/09/16 01:35:19;;;;;;;3.00;1.40;;;13.10;84.50;;;;;;5055573;28;20423;-70
2022/09/16 01:37:56;;;;;;;2.97;1.20;;;13.10;84.70;;;;;;5053003;28;20437;-70
2022/09/16 01:40:30;;;;;;;4.05;1.50;;;13.10;84.70;;;;;;5062628;28;20905;-70
2022/09/16 01:43:03;;;;;;;5.78;1.92;;;13.10;84.90;;;;;;5052801;28;20425;-71
2022/09/16 01:45:37;;;;;;;4.35;1.80;;;13.20;84.90;;;;;;5064184;28;20423;-70
2022/09/16 01:48:12;;;;;;;4.40;1.75;;;13.20;85.20;;;;;;5061223;28;20437;-71
2022/09/16 01:50:44;;;;;;;5.30;1.92;;;13.20;85.20;;;;;;5053754;28;20429;-71
2022/09/16 01:53:15;;;;;;;3.30;1.80;;;13.20;85.20;;;;;;5061283;28;20440;-71
2022/09/16 01:55:48;;;;;;;4.60;1.70;;;13.30;85.30;;;;;;5066223;28;20881;-70
2022/09/16 01:58:21;;;;;;;3.22;1.70;;;13.20;85.20;;;;;;5058673;28;20431;-71
2022/09/16 02:00:51;;;;;;;3.13;1.80;;;13.30;85.40;;;;;;5064507;28;20431;-70
2022/09/16 02:03:23;;;;;;;5.38;1.85;;;13.30;85.30;;;;;;5058728;28;20778;-70
2022/09/16 02:05:54;;;;;;;4.78;2.00;;;13.30;85.50;;;;;;5057934;28;20428;-71
2022/09/16 02:08:26;;;;;;;4.10;1.80;;;13.30;85.70;;;;;;5054583;28;20430;-71
2022/09/16 02:10:58;;;;;;;4.55;1.80;;;13.30;85.80;;;;;;5061585;28;20437;-70
2022/09/16 02:13:29;;;;;;;3.85;1.75;;;13.40;85.70;;;;;;5068292;28;20443;-69
2022/09/16 02:16:02;;;;;;;3.60;2.13;;;13.40;85.60;;;;;;5063577;28;20427;-70
2022/09/16 02:18:33;;;;;;;5.50;2.50;;;13.40;85.50;;;;;;5057719;28;20488;-70
2022/09/16 02:21:02;;;;;;;3.35;1.90;;;13.40;85.60;;;;;;5053699;28;20433;-71
2022/09/16 02:23:34;;;;;;;3.78;1.75;;;13.30;85.70;;;;;;5053610;28;20550;-69
2022/09/16 02:26:04;;;;;;;3.67;2.30;;;13.40;85.60;;;;;;5060594;28;20470;-71
2022/09/16 02:28:33;;;;;;;5.80;2.10;;;13.40;85.70;;;;;;5062988;28;20435;-70
2022/09/16 02:31:05;;;;;;;3.55;2.00;;;13.40;85.80;;;;;;5058311;28;20444;-70
2022/09/16 02:33:37;;;;;;;5.85;2.20;;;13.40;85.90;;;;;;5058901;28;20437;-71
2022/09/16 02:36:07;;;;;;;4.60;1.80;;;13.40;86.00;;;;;;5059959;28;20427;-71
2022/09/16 02:38:40;;;;;;;3.53;1.77;;;13.40;86.30;;;;;;5063173;28;20961;-71
2022/09/16 02:41:08;;;;;;;4.78;1.95;;;13.40;86.60;;;;;;5055147;28;20861;-70
2022/09/16 02:43:35;;;;;;;4.85;2.30;;;13.40;86.50;;;;;;5062037;28;20992;-71
2022/09/16 02:46:10;;;;;;;4.38;1.90;;;13.40;86.40;;;;;;5057940;28;20448;-71
2022/09/16 02:48:48;;;;;;;4.95;2.40;;;13.40;86.60;;;;;;5052300;28;20461;-70
2022/09/16 02:51:27;;;;;;;4.55;2.20;;;13.40;87.40;;;;;;5054660;28;20451;-68
2022/09/16 02:54:00;;;;;;;4.10;2.15;;;13.30;88.10;;;;;;5061371;28;20520;-69
2022/09/16 02:56:31;;;;;;;6.32;2.30;;;13.30;88.70;;;;;;5062416;28;20762;-69
2022/09/16 02:58:58;;;;;;;3.40;1.90;;;13.30;89.20;;;;;;5062379;28;21227;-71
2022/09/16 03:01:26;;;;;;;4.10;2.10;;;13.20;89.30;;;;;;5055060;28;20527;-70
2022/09/16 03:03:56;;;;;;;5.15;1.98;;;13.20;89.60;;;;;;5051769;28;20437;-68
2022/09/16 03:06:23;;;;;;;5.68;2.20;;;13.10;90.00;;;;;;5053160;28;20450;-69
2022/09/16 03:08:51;;;;;;;4.30;2.00;;;13.10;89.50;;;;;;5058654;28;20895;-69
2022/09/16 03:11:49;;;;;;;4.43;2.10;;;13.10;89.60;;;;;;5057718;28;20431;-69
2022/09/16 03:14:36;;;;;;;4.15;2.10;;;13.10;89.70;;;;;;5057656;28;20553;-71
2022/09/16 03:17:15;;;;;;;3.55;1.90;;;13.00;90.40;;;;;;5060338;28;20426;-72
2022/09/16 03:19:54;;;;;;;4.60;2.25;;;13.00;89.40;;;;;;5057514;28;20840;-69
2022/09/16 03:22:33;;;;;;;7.50;2.20;;;13.00;89.00;;;;;;5061096;28;20427;-69
2022/09/16 03:25:10;;;;;;;4.60;2.25;;;13.00;90.00;;;;;;5059402;28;20530;-69
2022/09/16 03:27:45;;;;;;;6.13;2.40;;;13.00;90.10;;;;;;5065461;28;20434;-69
2022/09/16 03:30:12;;;;;;;4.22;2.10;;;12.90;90.40;;;;;;5066844;28;20436;-68
2022/09/16 03:32:46;;;;;;;3.83;2.05;;;13.00;90.60;;;;;;5065547;28;20515;-69
2022/09/16 03:35:22;;;;;;;5.43;2.50;;;12.90;90.80;;;;;;5067205;28;20798;-69
2022/09/16 03:37:50;;;;;;;4.73;2.30;;;12.90;91.00;;;;;;5066825;28;20448;-70
2022/09/16 03:40:19;;;;;;;6.22;2.60;;;12.90;91.00;;;;;;5059806;28;20439;-70
2022/09/16 03:42:46;;;;;;;6.00;2.80;;;12.90;91.00;;;;;;5065719;28;20426;-69
2022/09/16 03:45:15;;;;;;;3.80;2.20;;;13.00;90.90;;;;;;5066741;28;20435;-69
2022/09/16 03:47:43;;;;;;;6.43;2.70;;;12.90;90.60;;;;;;5062882;28;20526;-69
2022/09/16 03:50:10;;;;;;;4.70;2.60;;;12.90;90.70;;;;;;5061843;28;20438;-69
2022/09/16 03:52:38;;;;;;;4.85;2.40;;;12.90;90.80;;;;;;5059029;28;20515;-69
2022/09/16 03:55:06;;;;;;;4.28;2.60;;;12.90;90.90;;;;;;5060411;28;20439;-69
2022/09/16 03:57:32;;;;;;;6.30;2.80;;;12.90;91.10;;;;;;5069345;28;20438;-69
2022/09/16 03:59:59;;;;;;;4.35;2.60;;;12.90;91.20;;;;;;5064231;28;20461;-69
2022/09/16 04:02:26;;;;;;;6.18;2.83;;;12.90;91.30;;;;;;5067590;28;20431;-69
2022/09/16 04:04:53;;;;;;;6.05;3.00;;;12.90;91.10;;;;;;5063383;28;20435;-68
2022/09/16 04:07:19;;;;;;;5.65;2.75;;;12.90;91.20;;;;;;5064721;28;20535;-69
2022/09/16 04:09:47;;;;;;;5.45;2.90;;;12.90;90.90;;;;;;5061638;28;20431;-68
2022/09/16 04:12:14;;;;;;;3.50;2.78;;;12.90;90.90;;;;;;5061249;28;20441;-68
2022/09/16 04:14:41;;;;;;;6.28;3.08;;;12.90;90.90;;;;;;5060372;28;20840;-69
2022/09/16 04:17:08;;;;;;;4.82;2.42;;;12.90;91.30;;;;;;5063413;28;20431;-69
2022/09/16 04:19:35;;;;;;;6.00;2.78;;;12.90;90.70;;;;;;5060609;28;20510;-68
2022/09/16 04:22:01;;;;;;;4.15;2.53;;;13.00;90.50;;;;;;5064519;28;20465;-68
2022/09/16 04:24:28;;;;;;;5.05;2.50;;;12.90;90.40;;;;;;5063490;28;20530;-68
2022/09/16 04:26:56;;;;;;;6.50;2.60;;;12.90;90.50;;;;;;5064160;28;20431;-67
2022/09/16 04:29:23;;;;;;;4.88;2.65;;;12.90;90.10;;;;;;5063460;28;20428;-67
2022/09/16 04:31:50;;;;;;;5.93;2.70;;;12.90;90.20;;;;;;5063704;28;20782;-67
2022/09/16 04:34:16;;;;;;;4.90;2.40;;;12.90;90.20;;;;;;5065180;28;20420;-68
2022/09/16 04:36:43;;;;;;;4.83;2.50;;;12.80;90.10;;;;;;5065671;28;20503;-67
2022/09/16 04:39:11;;;;;;;3.97;2.03;;;12.80;90.00;;;;;;5064647;28;20471;-67
2022/09/16 04:41:38;;;;;;;6.05;2.60;;;12.80;89.90;;;;;;5062150;28;20455;-67
2022/09/16 04:44:06;;;;;;;6.10;2.53;;;12.70;90.00;;;;;;5065055;28;20747;-67
2022/09/16 04:46:33;;;;;;;3.70;2.00;;;12.70;89.80;;;;;;5064803;28;20439;-68
2022/09/16 04:49:00;;;;;;;6.43;2.90;;;12.70;90.00;;;;;;5066385;28;20437;-67
2022/09/16 04:51:28;;;;;;;5.75;2.40;;;12.60;89.90;;;;;;5057774;28;20539;-67
2022/09/16 04:53:56;;;;;;;4.35;2.20;;;12.60;90.10;;;;;;5066337;28;20419;-67
2022/09/16 04:56:25;;;;;;;4.60;2.30;;;12.60;90.00;;;;;;5060721;28;20527;-68
2022/09/16 04:58:53;;;;;;;6.00;2.30;;;12.60;90.10;;;;;;5068536;28;20450;-67
2022/09/16 05:01:24;;;;;;;4.68;2.58;;;12.60;90.10;;;;;;5064067;28;20474;-68
2022/09/16 05:03:52;;;;;;;6.03;2.30;;;12.60;90.10;;;;;;5066374;28;20869;-67
2022/09/16 05:06:20;;;;;;;4.93;2.30;;;12.60;90.00;;;;;;5062699;28;20434;-67
2022/09/16 05:08:47;;;;;;;5.75;2.20;;;12.60;90.20;;;;;;5065322;28;20415;-67
2022/09/16 05:11:17;;;;;;;6.47;2.80;;;12.70;90.00;;;;;;5063263;28;20446;-67
2022/09/16 05:13:44;;;;;;;5.20;2.57;;;12.70;90.00;;;;;;5062244;28;20484;-66
2022/09/16 05:16:12;;;;;;;4.57;2.50;;;12.70;90.10;;;;;;5065340;28;20426;-67
2022/09/16 05:18:42;;;;;;;4.15;2.20;;;12.70;89.30;;;;;;5065730;28;20415;-67
2022/09/16 05:21:11;;;;;;;4.55;2.10;;;12.70;89.60;;;;;;5084025;22;20534;-66
2022/09/16 05:23:39;;;;;;;5.28;2.25;;;12.70;89.10;;;;;;5057762;28;20427;-66
2022/09/16 05:26:09;;;;;;;5.20;2.30;;;12.70;89.30;;;;;;5066042;28;20977;-67
2022/09/16 05:28:36;;;;;;;4.53;2.17;;;12.60;88.50;;;;;;5056562;28;20423;-67
2022/09/16 05:31:11;;;;;;;3.80;1.90;;;12.60;88.50;;;;;;5058987;28;20628;-68
2022/09/16 05:33:38;;;;;;;5.05;2.15;;;12.60;88.50;;;;;;5051667;28;20503;-72
2022/09/16 05:36:08;;;;;;;6.25;2.20;;;12.60;88.40;;;;;;5056872;28;20417;-67
2022/09/16 05:38:35;;;;;;;5.00;2.10;;;12.60;87.50;;;;;;5065706;28;20435;-67
2022/09/16 05:41:04;;;;;;;5.75;2.10;;;12.70;87.50;;;;;;5060606;28;20439;-66
2022/09/16 05:43:30;;;;;;;4.87;2.10;;;12.70;87.10;;;;;;5059731;28;21050;-67
2022/09/16 05:45:57;;;;;;;4.28;1.95;;;12.70;86.40;;;;;;5049902;28;20516;-67
2022/09/16 05:48:25;;;;;;;5.90;2.28;;;12.80;86.40;;;;;;5051298;28;20436;-68
2022/09/16 05:50:53;;;;;;;6.30;1.80;;;12.90;85.90;;;;;;5046622;28;20433;-67
2022/09/16 05:53:21;;;;;;;6.60;2.50;;;12.90;85.10;;;;;;5062332;28;20443;-68
2022/09/16 05:55:56;;;;;;;4.97;1.83;;;13.00;84.20;;;;;;5052684;28;20428;-68
2022/09/16 05:58:22;;;;;;;3.70;1.80;;;12.90;84.10;;;;;;5057705;28;20460;-67
2022/09/16 06:00:49;;;;;;;5.70;2.22;;;13.00;84.10;;;;;;5044071;28;20433;-68
2022/09/16 06:03:16;;;;;;;4.70;1.85;;;12.90;83.90;;;;;;5046655;28;20429;-66
2022/09/16 06:05:43;;;;;;;3.80;1.85;;;13.00;84.90;;;;;;5052231;28;20427;-68
2022/09/16 06:08:10;;;;;;;6.18;2.00;;;13.00;83.50;;;;;;5056083;28;20817;-67
2022/09/16 06:10:39;;;;;;;5.30;1.90;;;13.00;83.50;;;;;;5049425;28;20432;-66
2022/09/16 06:13:06;;;;;;;5.38;2.05;;;13.00;83.40;;;;;;5050851;28;20436;-67
2022/09/16 06:15:34;;;;;;;3.50;1.50;;;13.00;83.50;;;;;;5053458;28;20431;-67
2022/09/16 06:18:01;;;;;;;6.60;1.90;;;13.00;83.70;;;;;;5062096;28;20458;-68
2022/09/16 06:20:28;;;;;;;5.57;2.00;;;13.10;83.10;;;;;;5046999;28;20428;-67
2022/09/16 06:22:54;;;;;;;7.18;2.10;;;13.10;83.00;;;;;;5044488;28;20990;-67
2022/09/16 06:25:21;;;;;;;3.13;1.80;;;13.10;83.10;;;;;;5044740;28;20437;-66
2022/09/16 06:27:49;;;;;;;5.28;2.40;;;13.20;82.40;;;;;;5055957;28;20425;-67
2022/09/16 06:30:16;;;;;;;5.10;1.80;;;13.20;82.70;;;;;;5061707;28;20423;-67
2022/09/16 06:32:43;;;;;;;4.53;1.80;;;13.20;82.20;;;;;;5056390;28;20440;-68
2022/09/16 06:35:09;;;;;;;3.78;1.50;;;13.20;82.00;;;;;;5058809;28;20424;-66
2022/09/16 06:37:36;;;;;;;5.13;2.00;;;13.20;82.20;;;;;;5048750;28;20529;-67
2022/09/16 06:40:03;;;;;;;4.70;1.50;;;13.20;81.90;;;;;;5052430;28;20479;-65
2022/09/16 06:42:30;;;;;;;4.15;1.80;;;13.20;82.40;;;;;;5052764;28;20504;-67
2022/09/16 06:44:58;;;;;;;3.63;1.65;;;13.20;81.70;;;;;;5056423;28;20924;-67
2022/09/16 06:47:25;;;;;;;7.30;2.10;;;13.20;81.60;;;;;;5061512;28;20425;-66
2022/09/16 06:49:52;;;;;;;3.97;2.00;;;13.30;81.80;;;;;;5050581;28;20435;-66
2022/09/16 06:52:19;;;;;;;3.70;1.80;;;13.40;81.70;;;;;;5044395;28;20440;-67
2022/09/16 06:54:47;;;;;;;4.50;1.80;;;13.40;82.00;;;;;;5054449;28;20431;-67
2022/09/16 06:57:13;;;;;;;5.43;1.90;;;13.50;81.00;;;;;;5058264;28;20834;-66
2022/09/16 06:59:40;;;;;;;4.82;1.98;;;13.50;80.80;;;;;;5059037;28;20444;-67
2022/09/16 07:02:09;;;;;;;4.55;2.05;;;13.60;80.60;;;;;;5066036;28;20427;-66
2022/09/16 07:04:36;;;;;;;4.88;1.88;;;13.60;80.50;;;;;;5046984;28;20427;-67
2022/09/16 07:07:03;;;;;;;5.60;1.88;;;13.60;79.70;;;;;;5057752;28;20448;-67
2022/09/16 07:09:31;;;;;;;4.50;1.60;;;13.70;80.50;;;;;;5057497;28;20508;-67
2022/09/16 07:11:59;;;;;;;4.25;1.70;;;13.70;79.90;;;;;;5048818;28;20433;-66
2022/09/16 07:14:26;;;;;;;5.85;2.10;;;13.80;80.20;;;;;;5061217;28;20436;-66
2022/09/16 07:16:52;;;;;;;2.97;1.70;;;13.80;79.20;;;;;;5049796;28;20433;-67
2022/09/16 07:19:20;;;;;;;6.10;1.80;;;13.90;79.80;;;;;;5052432;28;20428;-67
2022/09/16 07:21:47;;;;;;;3.35;1.75;;;13.90;78.80;;;;;;5054116;28;21110;-66
2022/09/16 07:24:15;;;;;;;4.38;1.58;;;13.90;78.90;;;;;;5055546;28;20456;-68
2022/09/16 07:26:43;;;;;;;4.38;1.55;;;13.90;78.50;;;;;;5062570;28;20852;-65
2022/09/16 07:29:12;;;;;;;3.60;1.50;;;13.90;79.00;;;;;;5057208;28;20448;-67
2022/09/16 07:31:39;;;;;;;3.05;1.70;;;13.80;79.10;;;;;;5061810;28;20428;-68
2022/09/16 07:34:08;;;;;;;4.00;2.17;;;13.80;79.20;;;;;;5062846;28;20428;-66
2022/09/16 07:36:39;;;;;;;4.82;2.20;;;13.90;79.00;;;;;;5061127;28;20909;-67
2022/09/16 07:39:06;;;;;;;4.30;1.80;;;14.00;79.80;;;;;;5060410;28;21210;-67
2022/09/16 07:41:35;;;;;;;3.38;1.50;;;14.10;79.30;;;;;;5049202;28;20525;-70
2022/09/16 07:44:04;;;;;;;4.63;1.88;;;14.20;78.40;;;;;;5052838;28;21017;-67
2022/09/16 07:46:33;;;;;;;6.10;2.20;;;14.20;78.10;;;;;;5054533;28;20429;-66
2022/09/16 07:49:01;;;;;;;3.83;1.80;;;14.20;78.40;;;;;;5052805;28;20432;-66
2022/09/16 07:51:29;;;;;;;4.00;1.70;;;14.20;78.70;;;;;;5050281;28;20440;-65
2022/09/16 07:54:01;;;;;;;3.72;2.00;;;14.20;78.60;;;;;;5049520;28;20740;-66
2022/09/16 07:56:30;;;;;;;5.53;2.28;;;14.10;78.90;;;;;;5058947;28;20425;-67
2022/09/16 07:58:57;;;;;;;3.05;1.70;;;14.20;79.70;;;;;;5057824;28;20442;-66
2022/09/16 08:01:24;;;;;;;4.72;2.00;;;14.30;79.40;;;;;;5050720;28;20424;-67
2022/09/16 08:03:52;;;;;;;4.88;1.60;;;14.40;79.00;;;;;;5050855;28;20428;-66
2022/09/16 08:06:21;;;;;;;2.95;1.50;;;14.50;78.80;;;;;;5055769;28;20936;-66
2022/09/16 08:08:51;;;;;;;5.65;1.75;;;14.50;77.50;;;;;;5055110;28;20923;-68
2022/09/16 08:11:19;;;;;;;6.22;2.00;;;14.50;77.70;;;;;;5048131;28;20422;-66
2022/09/16 08:13:46;;;;;;;4.25;1.55;;;14.50;78.20;;;;;;5054543;28;20441;-66
2022/09/16 08:16:15;;;;;;;4.28;1.50;;;14.50;78.10;;;;;;5059098;28;20421;-65
2022/09/16 08:18:42;;;;;;;3.85;2.00;;;14.50;77.60;;;;;;5047785;28;20429;-66
2022/09/16 08:21:11;;;;;;;3.50;1.60;;;14.60;77.40;;;;;;5047875;28;20437;-66
2022/09/16 08:23:39;;;;;;;7.40;2.20;;;14.50;77.30;;;;;;5054195;28;20433;-68
2022/09/16 08:26:08;;;;;;;3.88;2.55;;;14.50;77.30;;;;;;5054595;28;20423;-66
2022/09/16 08:28:37;;;;;;;4.50;2.67;;;14.60;77.50;;;;;;5053020;28;20427;-68
2022/09/16 08:31:05;;;;;;;3.65;2.22;;;14.70;77.20;;;;;;5055442;28;20429;-71
2022/09/16 08:33:32;;;;;;;3.28;2.30;;;14.70;75.00;;;;;;5054615;28;20449;-67
2022/09/16 08:35:59;;;;;;;4.32;2.20;;;14.80;75.20;;;;;;5054719;28;20427;-67
2022/09/16 08:38:26;;;;;;;2.83;2.27;;;14.90;74.10;;;;;;5057898;28;20917;-67
2022/09/16 08:40:58;;;;;;;3.67;2.50;;;14.90;73.90;;;;;;5047945;28;20413;-67
2022/09/16 08:43:32;;;;;;;4.35;2.60;;;15.00;74.20;;;;;;5048159;28;21891;-68
2022/09/16 08:46:08;;;;;;;6.07;2.27;;;15.00;73.80;;;;;;5059837;28;20423;-68
2022/09/16 08:48:44;;;;;;;3.80;2.00;;;15.00;74.10;;;;;;5045524;28;20610;-67
2022/09/16 08:51:17;;;;;;;4.47;2.20;;;15.00;74.70;;;;;;5051333;28;20417;-68
2022/09/16 08:53:47;;;;;;;2.72;1.80;;;15.30;74.50;;;;;;5057646;28;20433;-65
2022/09/16 08:56:18;;;;;;;3.50;1.80;;;15.50;73.70;;;;;;5046787;28;20417;-66
2022/09/16 08:58:48;;;;;;;3.10;1.50;;;15.60;73.10;;;;;;5048072;28;20510;-67
2022/09/16 09:01:22;;;;;;;5.82;1.38;;;15.80;71.30;;;;;;5048573;28;20914;-66
2022/09/16 09:03:49;;;;;;;3.50;1.40;;;16.00;69.80;;;;;;5049134;28;20931;-68
2022/09/16 09:06:31;;;;;;;3.33;1.60;;;16.00;68.30;;;;;;5059845;28;20432;-67
2022/09/16 09:09:05;;;;;;;3.00;1.70;;;16.00;68.20;;;;;;5054600;28;20459;-66
2022/09/16 09:11:39;;;;;;;3.67;1.70;;;15.80;69.10;;;;;;5057810;28;20415;-67
2022/09/16 09:14:19;;;;;;;3.40;1.20;;;15.90;68.90;;;;;;5046349;28;20437;-67
2022/09/16 09:16:56;;;;;;;2.45;1.20;;;16.30;67.50;;;;;;5048540;28;20417;-67
2022/09/16 09:22:45;;;;;;;2.10;1.10;;;17.20;65.90;;;;;;5104440;27;20389;-66
2022/09/16 09:25:23;;;;;;;4.40;1.00;;;17.50;61.50;;;;;;5108905;28;20420;-65
2022/09/16 09:28:00;;;;;;;2.10;0.90;;;17.60;60.60;;;;;;5126954;28;20813;-68
2022/09/16 09:30:28;;;;;;;4.15;1.15;;;17.60;61.10;;;;;;5125133;28;20428;-67
2022/09/16 09:33:13;;;;;;;3.72;1.50;;;17.50;61.70;;;;;;5092240;28;20419;-68
2022/09/16 09:35:57;;;;;;;3.53;1.10;;;17.60;62.10;;;;;;5086688;28;20430;-68
2022/09/16 09:38:50;;;;;;;3.50;1.20;;;17.60;60.10;;;;;;5094203;28;20432;-68
2022/09/16 09:41:23;;;;;;;3.13;1.00;;;17.30;60.50;;;;;;5088921;28;20427;-68
2022/09/16 09:43:55;;;;;;;2.90;1.10;;;17.20;60.90;;;;;;5095836;28;20510;-69
2022/09/16 09:46:27;;;;;;;3.33;1.20;;;17.00;61.50;;;;;;5097147;28;20419;-67
2022/09/16 09:49:00;;;;;;;2.67;0.80;;;16.90;62.70;;;;;;5106013;28;20432;-68
2022/09/16 09:51:37;;;;;;;2.75;1.30;;;16.90;61.50;;;;;;5096718;28;20518;-67
2022/09/16 09:54:24;;;;;;;3.40;1.30;;;16.70;62.50;;;;;;5097165;28;20426;-66
2022/09/16 09:56:55;;;;;;;3.77;1.10;;;16.70;61.40;;;;;;5096301;28;20469;-67
2022/09/16 09:59:29;;;;;;;2.40;0.90;;;16.60;60.80;;;;;;5103741;28;20470;-68
2022/09/16 10:01:56;;;;;;;2.65;1.30;;;16.30;62.00;;;;;;5096192;28;20430;-67
2022/09/16 10:04:23;;;;;;;3.15;1.13;;;16.10;62.70;;;;;;5091850;28;20415;-66
2022/09/16 10:06:54;;;;;;;4.40;1.50;;;16.00;63.60;;;;;;5090659;28;20435;-67
2022/09/16 10:09:23;;;;;;;2.83;1.17;;;15.90;64.60;;;;;;5102831;28;20432;-67
2022/09/16 10:11:53;;;;;;;2.72;1.30;;;15.80;64.40;;;;;;5105064;28;20424;-68
2022/09/16 10:14:25;;;;;;;2.80;1.45;;;15.90;65.30;;;;;;5102657;28;21821;-67
2022/09/16 10:16:53;;;;;;;3.38;1.00;;;16.00;65.10;;;;;;5098986;28;20417;-67
2022/09/16 10:19:23;;;;;;;2.30;1.20;;;16.30;64.70;;;;;;5104823;28;20448;-66
2022/09/16 10:21:53;;;;;;;1.70;1.10;;;16.80;63.80;;;;;;5110179;27;20483;-66
2022/09/16 10:24:31;;;;;;;2.40;1.30;;;17.40;61.70;;;;;;5123051;28;20424;-65
2022/09/16 10:26:59;;;;;;;2.90;1.50;;;17.80;58.90;;;;;;5115588;28;20474;-68
2022/09/16 10:29:26;;;;;;;3.22;1.40;;;17.90;57.30;;;;;;5108501;27;20425;-68
2022/09/16 10:31:53;;;;;;;3.47;1.20;;;17.90;57.70;;;;;;5123153;27;20412;-68
2022/09/16 10:34:28;;;;;;;2.00;1.30;;;17.90;57.60;;;;;;5107490;28;20426;-68
2022/09/16 10:37:13;;;;;;;3.78;2.00;;;17.90;57.70;;;;;;5107349;28;20416;-68
2022/09/16 10:39:45;;;;;;;2.00;0.90;;;18.00;57.10;;;;;;5104833;28;20408;-67
2022/09/16 10:42:19;;;;;;;3.30;1.10;;;18.30;56.40;;;;;;5111704;27;20925;-67
2022/09/16 10:44:47;;;;;;;3.13;1.10;;;18.50;54.80;;;;;;5104970;28;20966;-69
2022/09/16 10:47:20;;;;;;;3.00;1.23;;;18.50;54.80;;;;;;5107724;28;20447;-68
2022/09/16 10:49:49;;;;;;;2.40;1.25;;;18.70;54.00;;;;;;5100286;28;20417;-67
2022/09/16 10:52:17;;;;;;;2.47;1.30;;;18.80;54.20;;;;;;5103031;28;20413;-74
2022/09/16 10:54:46;;;;;;;2.08;1.20;;;18.90;52.90;;;;;;5109530;28;20428;-72
2022/09/16 10:57:23;;;;;;;2.30;1.33;;;18.90;52.70;;;;;;5107710;28;20453;-72
2022/09/16 11:00:00;;;;;;;3.03;1.23;;;18.60;53.90;;;;;;5100810;28;20432;-72
2022/09/16 11:02:46;;;;;;;1.90;1.00;;;18.50;54.40;;;;;;5102869;28;20426;-73
2022/09/16 11:05:21;;;;;;;3.20;1.10;;;18.50;53.90;;;;;;5107177;28;20965;-72
2022/09/16 11:07:59;;;;;;;2.75;1.60;;;18.30;54.60;;;;;;5105207;28;20964;-73
2022/09/16 11:10:34;;;;;;;1.60;1.00;;;18.20;55.20;;;;;;5110092;28;20420;-72
2022/09/16 11:13:18;;;;;;;3.00;1.48;;;18.30;54.30;;;;;;5105885;28;20455;-73
2022/09/16 11:15:56;;;;;;;2.42;1.00;;;18.30;52.80;;;;;;5102793;28;20432;-72
2022/09/16 11:18:34;;;;;;;2.65;1.05;;;17.90;53.80;;;;;;5111500;28;20809;-72
2022/09/16 11:21:13;;;;;;;3.00;1.10;;;17.70;55.70;;;;;;5114523;28;20434;-71
2022/09/16 11:23:59;;;;;;;1.80;0.80;;;17.60;56.10;;;;;;5057130;22;20444;-74
2022/09/16 11:26:36;;;;;;;2.53;0.90;;;17.50;55.20;;;;;;5023228;28;20955;-75
2022/09/16 11:29:17;;;;;;;3.10;1.00;;;17.70;55.80;;;;;;5026137;28;20434;-74
2022/09/16 11:31:54;;;;;;;2.67;1.10;;;18.10;55.30;;;;;;5021287;28;20427;-74
2022/09/16 11:34:39;;;;;;;2.42;0.80;;;18.60;54.20;;;;;;5025166;28;20439;-74
2022/09/16 11:37:16;;;;;;;2.72;0.70;;;18.80;52.30;;;;;;5021587;28;20438;-75
2022/09/16 11:40:05;;;;;;;1.60;0.70;;;18.80;51.80;;;;;;5019261;28;20450;-75
2022/09/16 11:42:37;;;;;;;2.50;0.70;;;19.00;53.30;;;;;;5025667;28;20434;-75
2022/09/16 11:45:20;;;;;;;2.60;0.70;;;19.50;50.50;;;;;;5021193;28;20434;-74
2022/09/16 11:48:04;;;;;;;2.40;1.00;;;19.90;49.10;;;;;;5023726;28;20429;-76
2022/09/16 11:50:41;;;;;;;1.73;0.60;;;20.00;48.80;;;;;;5020811;28;20839;-75
2022/09/16 11:53:23;;;;;;;3.17;1.20;;;20.10;47.30;;;;;;5023553;28;20920;-76
2022/09/16 11:55:55;;;;;;;2.40;0.77;;;20.00;50.00;;;;;;5019711;28;20435;-75
2022/09/16 11:58:35;;;;;;;3.42;0.90;;;20.10;45.60;;;;;;5023097;28;20537;-76
2022/09/16 12:01:09;;;;;;;3.58;0.80;;;19.80;47.40;;;;;;5018093;28;20945;-76
2022/09/16 12:03:45;;;;;;;2.38;0.90;;;19.60;49.00;;;;;;5022404;28;20439;-76
2022/09/16 12:06:15;;;;;;;3.00;1.00;;;19.30;48.70;;;;;;5020896;28;20434;-76
2022/09/16 12:08:53;;;;;;;2.33;0.63;;;19.20;49.50;;;;;;5024622;28;20430;-75
2022/09/16 12:11:31;;;;;;;1.47;0.53;;;19.30;50.80;;;;;;5022299;28;20434;-76
2022/09/16 12:14:07;;;;;;;2.53;0.85;;;19.10;48.00;;;;;;5023702;28;20435;-76
2022/09/16 12:16:40;;;;;;;1.65;0.95;;;18.40;50.10;;;;;;5015385;28;20450;-72
2022/09/16 12:19:13;;;;;;;2.13;0.90;;;18.10;52.40;;;;;;5017199;28;20451;-74
2022/09/16 12:21:44;;;;;;;4.13;1.20;;;17.80;52.50;;;;;;5019284;28;20438;-72
2022/09/16 12:24:17;;;;;;;1.67;0.60;;;17.90;53.40;;;;;;5025472;28;20424;-72
2022/09/16 12:26:49;;;;;;;1.63;0.60;;;18.30;52.80;;;;;;5014014;28;20431;-72
2022/09/16 12:29:23;;;;;;;1.95;0.60;;;18.20;53.00;;;;;;5015455;28;20462;-73
2022/09/16 12:31:55;;;;;;;2.83;0.88;;;18.20;53.40;;;;;;5022870;28;20593;-74
2022/09/16 12:34:27;;;;;;;1.30;0.53;;;18.20;54.40;;;;;;5016099;28;20452;-73
2022/09/16 12:36:59;;;;;;;3.08;0.80;;;18.10;55.10;;;;;;5024789;28;20447;-70
2022/09/16 12:39:25;;;;;;;2.20;1.20;;;17.70;57.80;;;;;;5017026;28;20431;-70
2022/09/16 12:42:21;;;;;;;2.55;0.85;;;17.20;68.80;;;;;;5016853;28;20433;-71
2022/09/16 12:45:05;;;;;;;6.47;1.60;;;15.90;75.60;;;;;;5019220;28;20449;-74
2022/09/16 12:48:01;;;;;;;2.40;1.20;;;14.30;83.90;;;;;;5017810;28;20884;-73
2022/09/16 12:51:06;;;;;;;2.67;1.15;;;13.30;89.30;;;;;;5022632;28;20503;-71
2022/09/16 12:54:03;;;;;;;2.08;1.38;;;12.80;91.10;;;;;;5011698;28;20843;-72
2022/09/16 12:56:43;;;;;;;3.28;1.30;;;12.50;92.80;;;;;;5015809;28;20460;-73
2022/09/16 12:59:26;;;;;;;3.72;1.50;;;12.20;92.60;;;;;;5022374;28;20900;-72
2022/09/16 13:01:59;;;;;;;3.50;1.50;;;12.10;93.30;;;;;;5019388;28;20438;-72
2022/09/16 13:04:30;;;;;;;3.40;1.73;;;12.10;93.60;;;;;;5021052;28;21472;-72
2022/09/16 13:06:58;;;;;;;2.10;1.70;;;12.10;93.80;;;;;;5023050;28;20914;-72
2022/09/16 13:09:30;;;;;;;3.03;1.90;;;12.10;93.90;;;;;;5018957;28;20431;-72
2022/09/16 13:12:00;;;;;;;3.65;1.60;;;12.20;93.70;;;;;;5026975;28;20746;-71
2022/09/16 13:14:31;;;;;;;2.95;2.40;;;12.30;93.90;;;;;;5023404;28;20457;-72